createdAt,value
2018-09-14T00:00:52.251Z,5.20
2018-09-14T00:03:20.771Z,5.20
2018-09-14T00:05:49.502Z,4.50
2018-09-14T00:08:18.391Z,5.63
2018-09-14T00:10:46.846Z,5.47
2018-09-14T00:13:15.363Z,5.40
2018-09-14T00:15:43.851Z,5.43
2018-09-14T00:18:12.353Z,6.17
2018-09-14T00:20:40.819Z,5.37
2018-09-14T00:23:09.584Z,5.17
2018-09-14T00:25:38.055Z,5.87
2018-09-14T00:28:06.869Z,5.63
2018-09-14T00:30:35.382Z,6.10
2018-09-14T00:33:03.912Z,5.30
2018-09-14T00:35:32.627Z,4.70
2018-09-14T00:38:01.131Z,5.00
2018-09-14T00:40:29.562Z,4.90
2018-09-14T00:42:58.003Z,4.90
2018-09-14T00:45:26.583Z,4.53
2018-09-14T00:47:55.027Z,4.67
2018-09-14T00:50:23.494Z,5.27
2018-09-14T00:52:51.937Z,5.37
2018-09-14T00:55:21.196Z,4.80
2018-09-14T00:57:49.635Z,5.33
2018-09-14T01:00:18.114Z,5.57
2018-09-14T01:02:46.563Z,4.97
2018-09-14T01:05:15.339Z,6.60
2018-09-14T01:07:43.800Z,6.17
2018-09-14T01:10:12.278Z,6.33
2018-09-14T01:12:47.902Z,6.30
2018-09-14T01:15:16.386Z,5.93
2018-09-14T01:17:44.826Z,7.03
2018-09-14T01:20:13.340Z,7.83
2018-09-14T01:22:42.090Z,7.53
2018-09-14T01:25:10.887Z,6.97
2018-09-14T01:27:40.153Z,8.30
2018-09-14T01:30:08.943Z,8.50
2018-09-14T01:32:37.435Z,7.53
2018-09-14T01:35:14.102Z,9.23
2018-09-14T01:37:42.618Z,8.40
2018-09-14T01:40:11.143Z,9.00
2018-09-14T01:42:39.646Z,8.50
2018-09-14T01:45:08.278Z,8.63
2018-09-14T01:47:36.881Z,8.63
2018-09-14T01:50:05.985Z,8.97
2018-09-14T01:52:34.513Z,7.90
2018-09-14T01:55:03.105Z,8.70
2018-09-14T01:57:31.578Z,9.03
2018-09-14T02:00:00.127Z,7.60
2018-09-14T02:02:28.649Z,9.40
2018-09-14T02:04:57.127Z,8.00
2018-09-14T02:07:25.637Z,8.80
2018-09-14T02:09:54.133Z,10.23
2018-09-14T02:12:22.723Z,8.70
2018-09-14T02:14:51.227Z,8.80
2018-09-14T02:17:19.768Z,8.30
2018-09-14T02:19:48.229Z,8.50
2018-09-14T02:22:16.990Z,8.63
2018-09-14T02:24:45.435Z,9.27
2018-09-14T02:27:13.947Z,8.40
2018-09-14T02:29:42.451Z,10.57
2018-09-14T02:32:10.933Z,8.40
2018-09-14T02:34:39.489Z,8.57
2018-09-14T02:37:08.013Z,7.80
2018-09-14T02:39:36.500Z,9.23
2018-09-14T02:42:05.096Z,9.50
2018-09-14T02:44:33.588Z,8.00
2018-09-14T02:47:02.130Z,8.70
2018-09-14T02:49:30.917Z,8.90
2018-09-14T02:51:59.426Z,8.77
2018-09-14T02:54:28.052Z,8.90
2018-09-14T02:56:56.558Z,8.43
2018-09-14T02:59:25.113Z,8.70
2018-09-14T03:01:53.985Z,8.47
2018-09-14T03:04:22.711Z,8.57
2018-09-14T03:06:51.207Z,8.80
2018-09-14T03:09:19.756Z,8.80
2018-09-14T03:11:48.301Z,9.97
2018-09-14T03:14:16.814Z,9.77
2018-09-14T03:16:45.362Z,9.83
2018-09-14T03:19:13.911Z,9.10
2018-09-14T03:21:42.420Z,9.00
2018-09-14T03:24:10.958Z,8.63
2018-09-14T03:26:39.450Z,7.87
2018-09-14T03:29:07.958Z,9.13
2018-09-14T03:31:36.567Z,8.40
2018-09-14T03:34:05.071Z,9.10
2018-09-14T03:36:33.585Z,8.37
2018-09-14T03:39:02.082Z,8.80
2018-09-14T03:41:30.605Z,8.97
2018-09-14T03:43:59.071Z,8.67
2018-09-14T03:46:27.601Z,7.90
2018-09-14T03:48:56.092Z,7.80
2018-09-14T03:51:24.612Z,9.60
2018-09-14T03:53:53.156Z,8.77
2018-09-14T03:56:21.622Z,8.50
2018-09-14T03:58:50.238Z,8.57
2018-09-14T04:01:18.810Z,9.53
2018-09-14T04:03:47.480Z,8.13
2018-09-14T04:06:15.999Z,9.67
2018-09-14T04:08:44.492Z,8.20
2018-09-14T04:11:13.023Z,8.60
2018-09-14T04:13:41.509Z,8.40
2018-09-14T04:16:10.026Z,10.10
2018-09-14T04:18:38.516Z,8.73
2018-09-14T04:21:07.066Z,9.20
2018-09-14T04:23:35.554Z,8.53
2018-09-14T04:26:04.065Z,7.70
2018-09-14T04:28:32.927Z,9.50
2018-09-14T04:31:01.535Z,9.07
2018-09-14T04:33:30.027Z,9.07
2018-09-14T04:35:58.539Z,9.63
2018-09-14T04:38:27.052Z,10.40
2018-09-14T04:40:55.574Z,9.53
2018-09-14T04:43:24.059Z,10.30
2018-09-14T04:45:52.563Z,10.50
2018-09-14T04:48:21.119Z,9.33
2018-09-14T04:50:49.627Z,9.37
2018-09-14T04:53:18.111Z,9.30
2018-09-14T04:55:46.620Z,10.40
2018-09-14T04:58:15.130Z,9.40
2018-09-14T05:00:43.654Z,11.37
2018-09-14T05:03:12.179Z,10.00
2018-09-14T05:05:40.617Z,8.50
2018-09-14T05:08:09.135Z,10.47
2018-09-14T05:10:37.619Z,10.40
2018-09-14T05:13:06.159Z,10.77
2018-09-14T05:15:34.642Z,10.50
2018-09-14T05:18:04.309Z,10.93
2018-09-14T05:20:33.167Z,11.00
2018-09-14T05:23:01.886Z,11.00
2018-09-14T05:25:30.850Z,11.33
2018-09-14T05:27:59.314Z,9.57
2018-09-14T05:30:27.878Z,10.23
2018-09-14T05:32:56.388Z,9.73
2018-09-14T05:35:25.158Z,11.27
2018-09-14T05:37:53.635Z,11.50
2018-09-14T05:40:22.116Z,10.47
2018-09-14T05:42:50.566Z,10.77
2018-09-14T05:45:19.349Z,10.63
2018-09-14T05:47:47.820Z,10.80
2018-09-14T05:50:16.351Z,10.83
2018-09-14T05:52:44.828Z,11.10
2018-09-14T05:55:13.270Z,11.47
2018-09-14T05:57:41.764Z,10.93
2018-09-14T06:00:10.312Z,10.40
2018-09-14T06:02:39.112Z,11.20
2018-09-14T06:05:07.683Z,10.80
2018-09-14T06:07:36.443Z,11.60
2018-09-14T06:10:05.887Z,10.33
2018-09-14T06:12:34.363Z,11.00
2018-09-14T06:15:02.843Z,10.27
2018-09-14T06:17:31.320Z,10.63
2018-09-14T06:19:59.767Z,10.50
2018-09-14T06:22:28.290Z,11.03
2018-09-14T06:24:56.695Z,10.60
2018-09-14T06:27:25.171Z,10.97
2018-09-14T06:29:53.675Z,9.87
2018-09-14T06:32:22.135Z,9.50
2018-09-14T06:34:50.650Z,9.43
2018-09-14T06:37:19.176Z,11.90
2018-09-14T06:39:47.689Z,9.60
2018-09-14T06:42:16.287Z,11.10
2018-09-14T06:44:44.821Z,11.37
2018-09-14T06:47:13.360Z,10.90
2018-09-14T06:49:41.876Z,10.50
2018-09-14T06:52:10.426Z,10.43
2018-09-14T06:54:39.002Z,10.33
2018-09-14T06:57:07.484Z,11.07
2018-09-14T06:59:36.315Z,11.87
2018-09-14T07:02:04.852Z,10.67
2018-09-14T07:04:33.383Z,10.80
2018-09-14T07:07:01.883Z,10.93
2018-09-14T07:09:30.403Z,10.13
2018-09-14T07:11:58.898Z,9.97
2018-09-14T07:14:27.427Z,9.10
2018-09-14T07:16:55.935Z,8.80
2018-09-14T07:19:24.462Z,8.03
2018-09-14T07:21:53.007Z,7.77
2018-09-14T07:24:21.951Z,9.27
2018-09-14T07:26:50.487Z,8.63
2018-09-14T07:29:19.172Z,9.93
2018-09-14T07:31:47.805Z,8.83
2018-09-14T07:34:16.204Z,8.90
2018-09-14T07:36:44.817Z,8.93
2018-09-14T07:39:13.599Z,8.80
2018-09-14T07:41:42.606Z,8.73
2018-09-14T07:44:11.082Z,10.10
2018-09-14T07:46:39.649Z,9.10
2018-09-14T07:49:08.135Z,8.90
2018-09-14T07:51:36.635Z,8.07
2018-09-14T07:54:05.155Z,8.30
2018-09-14T07:56:33.746Z,10.70
2018-09-14T07:59:02.239Z,9.57
2018-09-14T08:01:30.752Z,7.90
2018-09-14T08:03:59.275Z,8.07
2018-09-14T08:06:27.754Z,9.43
2018-09-14T08:08:56.256Z,9.60
2018-09-14T08:11:24.758Z,9.50
2018-09-14T08:13:53.325Z,8.40
2018-09-14T08:16:21.803Z,10.60
2018-09-14T08:18:50.319Z,9.83
2018-09-14T08:21:18.874Z,9.97
2018-09-14T08:23:47.350Z,9.50
2018-09-14T08:26:16.114Z,11.17
2018-09-14T08:28:44.639Z,9.23
2018-09-14T08:31:13.157Z,10.00
2018-09-14T08:33:41.976Z,10.40
2018-09-14T08:36:10.460Z,10.70
2018-09-14T08:38:39.041Z,9.37
2018-09-14T08:41:07.540Z,9.57
2018-09-14T08:43:36.297Z,8.90
2018-09-14T08:46:04.914Z,9.37
2018-09-14T08:48:33.492Z,9.60
2018-09-14T08:51:02.264Z,9.53
2018-09-14T08:53:30.781Z,9.00
2018-09-14T08:55:59.275Z,9.17
2018-09-14T08:58:28.102Z,9.10
2018-09-14T09:00:56.659Z,8.20
2018-09-14T09:03:25.165Z,9.43
2018-09-14T09:05:53.665Z,7.90
2018-09-14T09:08:22.134Z,8.67
2018-09-14T09:10:50.682Z,8.20
2018-09-14T09:13:19.169Z,7.70
2018-09-14T09:15:47.696Z,7.43
2018-09-14T09:18:16.161Z,7.03
2018-09-14T09:20:44.700Z,7.70
2018-09-14T09:23:13.226Z,8.20
2018-09-14T09:25:42.048Z,8.30
2018-09-14T09:28:10.566Z,6.60
2018-09-14T09:30:39.058Z,7.00
2018-09-14T09:33:07.631Z,7.20
2018-09-14T09:35:36.140Z,6.77
2018-09-14T09:38:04.682Z,6.90
2018-09-14T09:40:33.133Z,5.97
2018-09-14T09:43:01.720Z,6.43
2018-09-14T09:45:30.171Z,6.13
2018-09-14T09:47:58.720Z,6.70
2018-09-14T09:50:27.219Z,5.90
2018-09-14T09:52:55.679Z,5.37
2018-09-14T09:55:24.186Z,5.10
2018-09-14T09:57:52.698Z,4.00
2018-09-14T10:00:26.496Z,3.80
2018-09-14T10:03:00.258Z,4.10
2018-09-14T10:05:34.212Z,4.00
2018-09-14T10:08:02.714Z,3.80
2018-09-14T10:13:35.459Z,2.73
2018-09-14T10:16:03.950Z,3.73
2018-09-14T10:18:32.424Z,3.00
2018-09-14T10:21:00.973Z,3.63
2018-09-14T10:23:29.457Z,2.90
2018-09-14T10:25:58.230Z,3.70
2018-09-14T10:28:26.955Z,4.20
2018-09-14T10:30:55.425Z,3.33
2018-09-14T10:33:23.935Z,3.37
2018-09-14T10:35:52.395Z,3.07
2018-09-14T10:38:20.869Z,4.13
2018-09-14T10:40:49.579Z,3.13
2018-09-14T10:43:18.124Z,3.30
2018-09-14T10:45:46.984Z,2.90
2018-09-14T10:48:15.525Z,3.13
2018-09-14T10:50:43.978Z,3.80
2018-09-14T10:53:12.431Z,3.23
2018-09-14T10:55:41.287Z,4.00
2018-09-14T10:58:10.007Z,4.37
2018-09-14T11:00:38.825Z,2.87
2018-09-14T11:03:07.281Z,3.73
2018-09-14T11:05:35.764Z,2.83
2018-09-14T11:08:04.571Z,2.57
2018-09-14T11:10:33.037Z,2.50
2018-09-14T11:13:01.897Z,13.77
2018-09-14T11:15:31.503Z,2.80
2018-09-14T11:17:59.991Z,3.10
2018-09-14T11:20:28.939Z,2.50
2018-09-14T11:22:57.408Z,2.60
2018-09-14T11:25:26.262Z,3.77
2018-09-14T11:27:54.794Z,4.63
2018-09-14T11:30:23.581Z,3.33
2018-09-14T11:32:52.026Z,2.40
2018-09-14T11:35:20.503Z,4.07
2018-09-14T11:37:49.065Z,2.23
2018-09-14T11:40:17.786Z,2.90
2018-09-14T11:42:46.685Z,2.47
2018-09-14T11:45:15.820Z,7.40
2018-09-14T11:47:44.300Z,1.93
2018-09-14T11:50:13.116Z,2.30
2018-09-14T11:52:41.947Z,3.47
2018-09-14T11:55:10.686Z,5.07
2018-09-14T11:57:39.119Z,3.70
2018-09-14T12:00:07.618Z,2.80
2018-09-14T12:02:36.387Z,2.20
2018-09-14T12:05:04.829Z,1.90
2018-09-14T12:07:36.920Z,2.27
2018-09-14T12:10:05.728Z,1.70
2018-09-14T12:12:34.827Z,2.07
2018-09-14T12:15:03.320Z,2.30
2018-09-14T12:17:32.271Z,1.70
2018-09-14T12:20:01.069Z,2.17
2018-09-14T12:22:29.835Z,1.80
2018-09-14T12:24:58.368Z,1.80
2018-09-14T12:27:26.899Z,2.30
2018-09-14T12:29:55.616Z,2.23
2018-09-14T12:32:24.155Z,1.70
2018-09-14T12:34:52.627Z,2.00
2018-09-14T12:37:21.067Z,3.60
2018-09-14T12:39:50.401Z,2.03
2018-09-14T12:42:18.855Z,2.20
2018-09-14T12:44:47.348Z,2.50
2018-09-14T12:47:15.873Z,2.60
2018-09-14T12:49:44.363Z,2.30
2018-09-14T12:52:12.856Z,2.03
2018-09-14T12:54:41.404Z,2.27
2018-09-14T12:57:09.900Z,2.20
2018-09-14T12:59:38.359Z,1.70
2018-09-14T13:02:06.933Z,2.10
2018-09-14T13:04:35.452Z,1.97
2018-09-14T13:07:04.320Z,2.10
2018-09-14T13:09:32.784Z,2.70
2018-09-14T13:12:01.241Z,1.87
2018-09-14T13:14:29.785Z,1.83
2018-09-14T13:17:00.860Z,2.47
2018-09-14T13:19:30.398Z,2.00
2018-09-14T13:21:58.864Z,2.37
2018-09-14T13:24:27.326Z,2.43
2018-09-14T13:26:55.795Z,2.27
2018-09-14T13:29:24.579Z,2.33
2018-09-14T13:31:53.080Z,2.57
2018-09-14T13:34:21.571Z,3.27
2018-09-14T13:36:50.050Z,2.60
2018-09-14T13:39:18.530Z,2.20
2018-09-14T13:41:47.008Z,2.73
2018-09-14T13:44:15.459Z,2.47
2018-09-14T13:46:44.005Z,2.63
2018-09-14T13:49:12.463Z,2.77
2018-09-14T13:51:40.939Z,2.90
2018-09-14T13:54:09.387Z,2.67
2018-09-14T13:56:37.883Z,2.77
2018-09-14T13:59:06.421Z,2.97
2018-09-14T14:01:34.909Z,2.73
2018-09-14T14:04:03.400Z,2.73
2018-09-14T14:06:31.874Z,2.93
2018-09-14T14:09:00.331Z,3.00
2018-09-14T14:11:28.802Z,2.60
2018-09-14T14:13:57.244Z,2.57
2018-09-14T14:16:25.806Z,2.63
2018-09-14T14:18:54.220Z,3.07
2018-09-14T14:21:22.710Z,2.50
2018-09-14T14:23:51.145Z,2.43
2018-09-14T14:26:19.671Z,2.70
2018-09-14T14:28:48.410Z,2.37
2018-09-14T14:31:16.895Z,2.97
2018-09-14T14:33:45.397Z,3.50
2018-09-14T14:36:13.838Z,3.60
2018-09-14T14:38:42.543Z,3.43
2018-09-14T14:41:11.053Z,2.70
2018-09-14T14:43:39.431Z,2.50
2018-09-14T14:46:07.935Z,2.50
2018-09-14T14:48:36.636Z,3.27
2018-09-14T14:51:05.338Z,2.50
2018-09-14T14:53:33.834Z,2.47
2018-09-14T14:56:02.402Z,2.10
2018-09-14T14:58:31.014Z,2.63
2018-09-14T15:00:59.491Z,2.00
2018-09-14T15:03:28.175Z,2.60
2018-09-14T15:05:56.647Z,2.40
2018-09-14T15:08:25.435Z,2.03
2018-09-14T15:10:54.143Z,2.40
2018-09-14T15:13:22.599Z,2.87
2018-09-14T15:15:51.056Z,3.07
2018-09-14T15:18:20.006Z,2.57
2018-09-14T15:20:48.466Z,2.67
2018-09-14T15:23:17.276Z,2.17
2018-09-14T15:25:46.007Z,2.13
2018-09-14T15:28:14.475Z,2.20
2018-09-14T15:30:43.506Z,3.17
2018-09-14T15:33:11.986Z,2.27
2018-09-14T15:35:40.463Z,2.60
2018-09-14T15:38:08.960Z,2.33
2018-09-14T15:40:37.474Z,10.10
2018-09-14T15:43:05.927Z,2.77
2018-09-14T15:45:34.391Z,2.80
2018-09-14T15:48:02.839Z,2.70
2018-09-14T15:50:31.313Z,2.80
2018-09-14T15:52:59.757Z,2.17
2018-09-14T15:55:28.679Z,2.60
2018-09-14T15:57:57.157Z,2.60
2018-09-14T16:00:25.651Z,2.50
2018-09-14T16:02:54.787Z,2.40
2018-09-14T16:05:23.249Z,2.40
2018-09-14T16:07:51.717Z,3.20
2018-09-14T16:10:20.175Z,3.13
2018-09-14T16:12:48.674Z,2.30
2018-09-14T16:15:17.197Z,2.80
2018-09-14T16:17:45.797Z,2.53
2018-09-14T16:20:14.240Z,2.60
2018-09-14T16:22:42.896Z,2.73
2018-09-14T16:25:11.455Z,2.57
2018-09-14T16:27:40.011Z,2.27
2018-09-14T16:30:08.479Z,2.83
2018-09-14T16:32:36.955Z,2.67
2018-09-14T16:35:05.510Z,2.27
2018-09-14T16:37:34.323Z,3.43
2018-09-14T16:40:02.845Z,2.47
2018-09-14T16:42:31.334Z,2.80
2018-09-14T16:44:59.817Z,2.60
2018-09-14T16:47:28.296Z,2.70
2018-09-14T16:49:56.756Z,2.20
2018-09-14T16:52:25.306Z,2.97
2018-09-14T16:54:54.057Z,11.30
2018-09-14T16:57:22.735Z,3.73
2018-09-14T16:59:51.218Z,2.90
2018-09-14T17:02:19.714Z,2.43
2018-09-14T17:04:48.158Z,2.43
2018-09-14T17:07:16.634Z,2.83
2018-09-14T17:09:45.070Z,3.10
2018-09-14T17:12:13.547Z,3.23
2018-09-14T17:14:42.091Z,2.53
2018-09-14T17:17:10.579Z,2.90
2018-09-14T17:19:39.059Z,2.60
2018-09-14T17:22:07.630Z,3.83
2018-09-14T17:24:36.105Z,4.20
2018-09-14T17:27:04.601Z,3.33
2018-09-14T17:29:33.075Z,2.70
2018-09-14T17:32:01.521Z,2.63
2018-09-14T17:34:29.968Z,2.80
2018-09-14T17:36:58.735Z,3.00
2018-09-14T17:39:27.508Z,2.83
2018-09-14T17:41:56.234Z,2.80
2018-09-14T17:44:24.718Z,2.40
2018-09-14T17:46:53.443Z,2.60
2018-09-14T17:49:21.928Z,3.77
2018-09-14T17:51:50.714Z,2.30
2018-09-14T17:54:19.510Z,2.90
2018-09-14T17:56:48.044Z,2.90
2018-09-14T17:59:16.540Z,2.70
2018-09-14T18:01:45.078Z,3.47
2018-09-14T18:04:13.498Z,3.33
2018-09-14T18:06:42.256Z,2.73
2018-09-14T18:09:12.175Z,2.37
2018-09-14T18:11:41.187Z,2.77
2018-09-14T18:14:10.047Z,2.90
2018-09-14T18:16:38.520Z,2.70
2018-09-14T18:19:07.016Z,2.63
2018-09-14T18:21:35.502Z,2.40
2018-09-14T18:24:03.954Z,2.60
2018-09-14T18:26:32.406Z,2.50
2018-09-14T18:29:00.930Z,2.87
2018-09-14T18:31:29.399Z,2.47
2018-09-14T18:33:58.119Z,2.77
2018-09-14T18:36:26.559Z,2.87
2018-09-14T18:38:55.283Z,2.50
2018-09-14T18:41:24.062Z,2.23
2018-09-14T18:43:52.540Z,2.70
2018-09-14T18:46:21.038Z,2.60
2018-09-14T18:48:49.554Z,3.10
2018-09-14T18:51:18.055Z,2.77
2018-09-14T18:53:46.815Z,2.40
2018-09-14T18:56:15.255Z,2.80
2018-09-14T18:58:43.743Z,3.00
2018-09-14T19:01:12.246Z,3.33
2018-09-14T19:03:40.779Z,3.67
2018-09-14T19:06:09.282Z,2.93
2018-09-14T19:08:38.565Z,3.17
2018-09-14T19:11:07.088Z,2.83
2018-09-14T19:13:35.545Z,2.90
2018-09-14T19:16:04.374Z,2.23
2018-09-14T19:18:32.847Z,3.20
2018-09-14T19:21:01.363Z,2.50
2018-09-14T19:23:30.150Z,2.70
2018-09-14T19:25:58.652Z,3.03
2018-09-14T19:28:27.124Z,2.40
2018-09-14T19:30:55.615Z,2.57
2018-09-14T19:33:24.367Z,3.33
2018-09-14T19:35:53.891Z,3.10
2018-09-14T19:38:23.223Z,2.60
2018-09-14T19:40:51.679Z,3.20
2018-09-14T19:43:20.971Z,3.00
2018-09-14T19:45:49.478Z,3.17
2018-09-14T19:48:18.387Z,3.00
2018-09-14T19:50:47.704Z,3.37
2018-09-14T19:53:16.204Z,3.10
2018-09-14T19:55:44.674Z,2.60
2018-09-14T19:58:13.965Z,2.80
2018-09-14T20:00:42.479Z,3.13
2018-09-14T20:03:11.243Z,3.40
2018-09-14T20:05:39.703Z,3.10
2018-09-14T20:08:08.195Z,3.00
2018-09-14T20:10:36.986Z,3.20
2018-09-14T20:13:05.453Z,3.00
2018-09-14T20:15:33.911Z,3.33
2018-09-14T20:18:02.563Z,3.03
2018-09-14T20:20:31.016Z,2.90
2018-09-14T20:22:59.487Z,3.43
2018-09-14T20:25:27.948Z,3.07
2018-09-14T20:27:56.484Z,2.93
2018-09-14T20:30:24.998Z,2.97
2018-09-14T20:32:53.468Z,2.50
2018-09-14T20:35:22.139Z,2.63
2018-09-14T20:37:50.952Z,3.10
2018-09-14T20:40:19.735Z,2.20
2018-09-14T20:42:48.226Z,2.87
2018-09-14T20:45:16.696Z,2.60
2018-09-14T20:47:45.180Z,2.80
2018-09-14T20:50:13.700Z,2.53
2018-09-14T20:52:42.189Z,2.60
2018-09-14T20:55:10.638Z,2.67
2018-09-14T20:57:39.116Z,3.80
2018-09-14T21:00:07.787Z,3.63
2018-09-14T21:02:36.280Z,3.10
2018-09-14T21:05:04.859Z,2.87
2018-09-14T21:07:33.615Z,2.30
2018-09-14T21:10:02.404Z,2.93
2018-09-14T21:12:30.976Z,2.60
2018-09-14T21:14:59.443Z,2.90
2018-09-14T21:17:27.951Z,3.43
2018-09-14T21:19:56.399Z,3.10
2018-09-14T21:22:24.880Z,3.37
2018-09-14T21:24:53.342Z,3.73
2018-09-14T21:27:21.834Z,3.10
2018-09-14T21:29:50.331Z,3.10
2018-09-14T21:32:18.814Z,2.83
2018-09-14T21:34:47.289Z,3.70
2018-09-14T21:37:15.782Z,3.33
2018-09-14T21:39:44.496Z,3.03
2018-09-14T21:42:12.985Z,3.60
2018-09-14T21:44:41.401Z,3.57
2018-09-14T21:47:12.182Z,3.80
2018-09-14T21:49:40.759Z,3.97
2018-09-14T21:52:09.232Z,3.33
2018-09-14T21:54:37.711Z,4.33
2018-09-14T21:57:06.136Z,3.70
2018-09-14T21:59:34.616Z,3.70
2018-09-14T22:02:03.073Z,4.27
2018-09-14T22:04:31.552Z,3.53
2018-09-14T22:06:59.998Z,4.23
2018-09-14T22:09:28.463Z,4.30
2018-09-14T22:11:56.915Z,4.40
2018-09-14T22:14:25.384Z,4.63
2018-09-14T22:16:54.117Z,4.80
2018-09-14T22:19:22.597Z,4.33
2018-09-14T22:21:57.477Z,5.20
2018-09-14T22:24:26.721Z,5.00
2018-09-14T22:26:55.182Z,5.43
2018-09-14T22:29:23.731Z,5.30
2018-09-14T22:31:52.422Z,5.77
2018-09-14T22:34:20.939Z,6.07
2018-09-14T22:36:49.358Z,6.33
2018-09-14T22:39:17.866Z,6.57
2018-09-14T22:41:46.304Z,6.20
2018-09-14T22:44:14.774Z,6.80
2018-09-14T22:46:43.211Z,6.40
2018-09-14T22:49:11.716Z,6.20
2018-09-14T22:51:40.267Z,6.00
2018-09-14T22:54:08.722Z,5.30
2018-09-14T22:56:37.164Z,6.40
2018-09-14T22:59:05.938Z,6.00
2018-09-14T23:01:34.750Z,6.33
2018-09-14T23:04:03.220Z,5.70
2018-09-14T23:06:31.770Z,5.30
2018-09-14T23:09:00.248Z,6.73
2018-09-14T23:11:28.739Z,6.37
2018-09-14T23:13:57.177Z,5.77
2018-09-14T23:16:25.650Z,5.47
2018-09-14T23:18:54.119Z,6.30
2018-09-14T23:21:22.672Z,5.10
2018-09-14T23:23:51.109Z,5.40
2018-09-14T23:26:21.959Z,5.53
2018-09-14T23:28:50.416Z,6.10
2018-09-14T23:31:18.873Z,5.90
2018-09-14T23:33:47.558Z,5.43
2018-09-14T23:36:16.018Z,6.40
2018-09-14T23:38:44.477Z,5.57
2018-09-14T23:41:12.930Z,5.70
2018-09-14T23:43:41.355Z,6.03
2018-09-14T23:46:10.171Z,5.63
2018-09-14T23:48:38.616Z,5.60
2018-09-14T23:51:07.377Z,6.07
2018-09-14T23:53:35.909Z,5.70
2018-09-14T23:56:04.702Z,5.60
2018-09-14T23:58:33.184Z,5.73
